createdAt,value
2023-01-31T21:06:26.466Z,98920.41
2023-01-31T21:09:30.684Z,98908.56
2023-01-31T21:12:36.273Z,98909.09
2023-01-31T21:15:39.974Z,98889.75
2023-01-31T21:18:44.113Z,98887.53
2023-01-31T21:21:48.740Z,98873.44
2023-01-31T21:24:51.544Z,98877.72
2023-01-31T21:27:57.037Z,98870.56
2023-01-31T21:31:01.045Z,98878.00
2023-01-31T21:34:06.819Z,98884.44
2023-01-31T21:37:11.378Z,98889.88
2023-01-31T21:40:14.930Z,98879.72
2023-01-31T21:43:17.736Z,98888.34
2023-01-31T21:46:20.753Z,98885.09
2023-01-31T21:49:25.507Z,98890.63
2023-01-31T21:52:29.613Z,98904.28
2023-01-31T21:55:32.519Z,98903.41
2023-01-31T21:58:36.140Z,98909.00
2023-01-31T22:01:39.034Z,98902.09
2023-01-31T22:04:41.914Z,98909.41
2023-01-31T22:07:46.002Z,98918.19
2023-01-31T22:10:48.774Z,98918.78
2023-01-31T22:13:55.825Z,98928.22
2023-01-31T22:16:59.026Z,98934.63
2023-01-31T22:20:01.778Z,98942.97
2023-01-31T22:23:05.854Z,98941.59
2023-01-31T22:26:18.260Z,98944.03
2023-01-31T22:29:21.136Z,98949.69
2023-01-31T22:32:23.844Z,98950.66
2023-01-31T22:35:26.567Z,98946.53
2023-01-31T22:38:30.752Z,98939.56
2023-01-31T22:41:33.484Z,98941.63
2023-01-31T22:44:36.228Z,98938.38
2023-01-31T22:47:39.067Z,98935.44
2023-01-31T22:50:41.911Z,98936.03
2023-01-31T22:53:46.313Z,98939.34
2023-01-31T22:56:49.091Z,98921.94
2023-01-31T22:59:51.843Z,98912.31
2023-01-31T23:02:54.908Z,98906.03
2023-01-31T23:05:57.586Z,98887.72
2023-01-31T23:09:01.699Z,98879.16
2023-01-31T23:12:04.756Z,98879.16
2023-01-31T23:15:08.498Z,98871.81
2023-01-31T23:18:11.237Z,98878.63
2023-01-31T23:21:15.659Z,98870.94
2023-01-31T23:24:19.960Z,98875.66
2023-01-31T23:27:22.664Z,98877.81
2023-01-31T23:30:26.303Z,98874.00
2023-01-31T23:33:29.316Z,98878.31
2023-01-31T23:36:32.057Z,98882.56
2023-01-31T23:39:36.362Z,98881.31
2023-01-31T23:42:39.038Z,98869.06
2023-01-31T23:45:41.781Z,98871.84
2023-01-31T23:48:44.534Z,98859.16
2023-01-31T23:51:47.208Z,98870.03
2023-01-31T23:54:51.366Z,98869.28
2023-01-31T23:57:54.184Z,98865.72
